sensor_id;sensor_type;location;lat;lon;timestamp;P1;durP1;ratioP1;P2;durP2;ratioP2
10309;SDS011;5200;43.236;27.986;2023-07-31T00:00:15;6.82;;;2.58;;
10309;SDS011;5200;43.236;27.986;2023-07-31T00:02:42;2.75;;;2.10;;
10309;SDS011;5200;43.236;27.986;2023-07-31T00:05:08;6.65;;;3.05;;
10309;SDS011;5200;43.236;27.986;2023-07-31T00:07:37;3.17;;;2.65;;
10309;SDS011;5200;43.236;27.986;2023-07-31T00:10:04;3.45;;;2.22;;
10309;SDS011;5200;43.236;27.986;2023-07-31T00:12:32;3.25;;;2.75;;
10309;SDS011;5200;43.236;27.986;2023-07-31T00:14:58;2.30;;;2.13;;
10309;SDS011;5200;43.236;27.986;2023-07-31T00:17:25;2.95;;;2.30;;
10309;SDS011;5200;43.236;27.986;2023-07-31T00:19:52;2.83;;;2.22;;
10309;SDS011;5200;43.236;27.986;2023-07-31T00:22:19;2.35;;;2.15;;
10309;SDS011;5200;43.236;27.986;2023-07-31T00:24:47;3.85;;;2.42;;
10309;SDS011;5200;43.236;27.986;2023-07-31T00:27:14;2.63;;;2.40;;
10309;SDS011;5200;43.236;27.986;2023-07-31T00:29:41;4.32;;;2.40;;
10309;SDS011;5200;43.236;27.986;2023-07-31T00:32:08;2.40;;;2.20;;
10309;SDS011;5200;43.236;27.986;2023-07-31T00:34:35;4.10;;;2.38;;
10309;SDS011;5200;43.236;27.986;2023-07-31T00:37:02;4.97;;;2.42;;
10309;SDS011;5200;43.236;27.986;2023-07-31T00:39:29;4.88;;;2.42;;
10309;SDS011;5200;43.236;27.986;2023-07-31T00:41:57;2.60;;;2.40;;
10309;SDS011;5200;43.236;27.986;2023-07-31T00:44:24;4.13;;;2.30;;
10309;SDS011;5200;43.236;27.986;2023-07-31T00:46:51;2.75;;;2.25;;
10309;SDS011;5200;43.236;27.986;2023-07-31T00:49:20;3.47;;;2.50;;
10309;SDS011;5200;43.236;27.986;2023-07-31T00:51:48;2.58;;;2.10;;
10309;SDS011;5200;43.236;27.986;2023-07-31T00:54:15;3.50;;;2.28;;
10309;SDS011;5200;43.236;27.986;2023-07-31T00:56:44;2.45;;;2.20;;
10309;SDS011;5200;43.236;27.986;2023-07-31T00:59:15;2.50;;;2.30;;
10309;SDS011;5200;43.236;27.986;2023-07-31T01:01:43;2.53;;;2.33;;
10309;SDS011;5200;43.236;27.986;2023-07-31T01:04:11;2.85;;;2.28;;
10309;SDS011;5200;43.236;27.986;2023-07-31T01:06:40;2.72;;;2.53;;
10309;SDS011;5200;43.236;27.986;2023-07-31T01:09:16;4.13;;;2.42;;
10309;SDS011;5200;43.236;27.986;2023-07-31T01:11:51;3.35;;;2.40;;
10309;SDS011;5200;43.236;27.986;2023-07-31T01:14:23;3.58;;;2.53;;
10309;SDS011;5200;43.236;27.986;2023-07-31T01:16:50;4.05;;;2.63;;
10309;SDS011;5200;43.236;27.986;2023-07-31T01:19:17;3.28;;;2.70;;
10309;SDS011;5200;43.236;27.986;2023-07-31T01:21:58;2.72;;;2.55;;
10309;SDS011;5200;43.236;27.986;2023-07-31T01:24:48;5.25;;;2.70;;
10309;SDS011;5200;43.236;27.986;2023-07-31T01:27:28;3.33;;;2.10;;
10309;SDS011;5200;43.236;27.986;2023-07-31T01:29:59;2.97;;;2.67;;
10309;SDS011;5200;43.236;27.986;2023-07-31T01:32:35;6.18;;;2.50;;
10309;SDS011;5200;43.236;27.986;2023-07-31T01:35:05;7.43;;;2.85;;
10309;SDS011;5200;43.236;27.986;2023-07-31T01:37:33;2.67;;;2.15;;
10309;SDS011;5200;43.236;27.986;2023-07-31T01:40:00;3.50;;;2.30;;
10309;SDS011;5200;43.236;27.986;2023-07-31T01:42:28;4.70;;;2.55;;
10309;SDS011;5200;43.236;27.986;2023-07-31T01:44:55;3.58;;;2.30;;
10309;SDS011;5200;43.236;27.986;2023-07-31T01:47:22;2.63;;;2.42;;
10309;SDS011;5200;43.236;27.986;2023-07-31T01:49:49;3.50;;;2.45;;
10309;SDS011;5200;43.236;27.986;2023-07-31T01:52:16;4.07;;;2.30;;
10309;SDS011;5200;43.236;27.986;2023-07-31T01:54:43;4.68;;;2.30;;
10309;SDS011;5200;43.236;27.986;2023-07-31T01:57:10;7.03;;;2.60;;
10309;SDS011;5200;43.236;27.986;2023-07-31T01:59:38;3.25;;;2.67;;
10309;SDS011;5200;43.236;27.986;2023-07-31T02:02:05;2.85;;;2.40;;
10309;SDS011;5200;43.236;27.986;2023-07-31T02:04:32;2.63;;;2.10;;
10309;SDS011;5200;43.236;27.986;2023-07-31T02:06:59;3.40;;;2.40;;
10309;SDS011;5200;43.236;27.986;2023-07-31T02:09:26;2.72;;;2.42;;
10309;SDS011;5200;43.236;27.986;2023-07-31T02:11:53;3.53;;;2.20;;
10309;SDS011;5200;43.236;27.986;2023-07-31T02:14:20;2.40;;;2.03;;
10309;SDS011;5200;43.236;27.986;2023-07-31T02:16:48;3.03;;;2.72;;
10309;SDS011;5200;43.236;27.986;2023-07-31T02:19:15;3.30;;;2.25;;
10309;SDS011;5200;43.236;27.986;2023-07-31T02:21:42;3.47;;;2.47;;
10309;SDS011;5200;43.236;27.986;2023-07-31T02:24:08;2.78;;;2.58;;
10309;SDS011;5200;43.236;27.986;2023-07-31T02:26:35;2.63;;;2.42;;
10309;SDS011;5200;43.236;27.986;2023-07-31T02:29:02;2.60;;;2.40;;
10309;SDS011;5200;43.236;27.986;2023-07-31T02:31:29;3.35;;;2.47;;
10309;SDS011;5200;43.236;27.986;2023-07-31T02:33:57;2.53;;;2.33;;
10309;SDS011;5200;43.236;27.986;2023-07-31T02:36:24;2.53;;;2.10;;
10309;SDS011;5200;43.236;27.986;2023-07-31T02:38:51;2.45;;;2.25;;
10309;SDS011;5200;43.236;27.986;2023-07-31T02:41:18;4.40;;;2.20;;
10309;SDS011;5200;43.236;27.986;2023-07-31T02:43:45;6.07;;;2.35;;
10309;SDS011;5200;43.236;27.986;2023-07-31T02:46:12;3.17;;;2.40;;
10309;SDS011;5200;43.236;27.986;2023-07-31T02:48:38;3.95;;;1.92;;
10309;SDS011;5200;43.236;27.986;2023-07-31T02:51:07;2.40;;;2.20;;
10309;SDS011;5200;43.236;27.986;2023-07-31T02:53:34;3.05;;;2.50;;
10309;SDS011;5200;43.236;27.986;2023-07-31T02:56:00;2.70;;;2.13;;
10309;SDS011;5200;43.236;27.986;2023-07-31T02:58:27;2.60;;;2.40;;
10309;SDS011;5200;43.236;27.986;2023-07-31T03:00:54;6.60;;;2.38;;
10309;SDS011;5200;43.236;27.986;2023-07-31T03:03:21;2.53;;;2.20;;
10309;SDS011;5200;43.236;27.986;2023-07-31T03:05:48;3.00;;;2.67;;
10309;SDS011;5200;43.236;27.986;2023-07-31T03:08:16;3.28;;;2.40;;
10309;SDS011;5200;43.236;27.986;2023-07-31T03:10:43;4.35;;;2.70;;
10309;SDS011;5200;43.236;27.986;2023-07-31T03:13:10;4.60;;;2.42;;
10309;SDS011;5200;43.236;27.986;2023-07-31T03:15:37;2.80;;;2.38;;
10309;SDS011;5200;43.236;27.986;2023-07-31T03:18:04;2.00;;;1.80;;
10309;SDS011;5200;43.236;27.986;2023-07-31T03:20:31;4.03;;;1.58;;
10309;SDS011;5200;43.236;27.986;2023-07-31T03:22:57;4.72;;;1.70;;
10309;SDS011;5200;43.236;27.986;2023-07-31T03:25:26;3.08;;;1.90;;
10309;SDS011;5200;43.236;27.986;2023-07-31T03:27:53;3.05;;;1.70;;
10309;SDS011;5200;43.236;27.986;2023-07-31T03:30:20;1.88;;;1.42;;
10309;SDS011;5200;43.236;27.986;2023-07-31T03:32:46;2.45;;;1.40;;
10309;SDS011;5200;43.236;27.986;2023-07-31T03:35:13;1.65;;;1.35;;
10309;SDS011;5200;43.236;27.986;2023-07-31T03:37:40;3.90;;;1.55;;
10309;SDS011;5200;43.236;27.986;2023-07-31T03:40:07;2.25;;;1.50;;
10309;SDS011;5200;43.236;27.986;2023-07-31T03:42:37;4.05;;;1.90;;
10309;SDS011;5200;43.236;27.986;2023-07-31T03:45:04;2.13;;;1.52;;
10309;SDS011;5200;43.236;27.986;2023-07-31T03:47:32;1.30;;;1.20;;
10309;SDS011;5200;43.236;27.986;2023-07-31T03:49:59;1.40;;;1.23;;
10309;SDS011;5200;43.236;27.986;2023-07-31T03:52:25;2.72;;;1.48;;
10309;SDS011;5200;43.236;27.986;2023-07-31T03:54:52;6.03;;;1.67;;
10309;SDS011;5200;43.236;27.986;2023-07-31T03:57:19;4.05;;;1.35;;
10309;SDS011;5200;43.236;27.986;2023-07-31T03:59:47;4.63;;;1.48;;
10309;SDS011;5200;43.236;27.986;2023-07-31T04:02:14;1.60;;;1.50;;
10309;SDS011;5200;43.236;27.986;2023-07-31T04:04:41;1.42;;;1.30;;
10309;SDS011;5200;43.236;27.986;2023-07-31T04:07:08;1.85;;;1.45;;
10309;SDS011;5200;43.236;27.986;2023-07-31T04:09:34;1.52;;;1.42;;
10309;SDS011;5200;43.236;27.986;2023-07-31T04:12:01;1.50;;;1.40;;
10309;SDS011;5200;43.236;27.986;2023-07-31T04:14:28;1.60;;;1.50;;
10309;SDS011;5200;43.236;27.986;2023-07-31T04:16:57;2.55;;;1.17;;
10309;SDS011;5200;43.236;27.986;2023-07-31T04:19:24;5.38;;;1.40;;
10309;SDS011;5200;43.236;27.986;2023-07-31T04:21:50;3.28;;;1.60;;
10309;SDS011;5200;43.236;27.986;2023-07-31T04:24:17;1.92;;;1.70;;
10309;SDS011;5200;43.236;27.986;2023-07-31T04:26:49;6.22;;;1.63;;
10309;SDS011;5200;43.236;27.986;2023-07-31T04:29:16;4.63;;;1.95;;
10309;SDS011;5200;43.236;27.986;2023-07-31T04:31:43;3.25;;;2.00;;
10309;SDS011;5200;43.236;27.986;2023-07-31T04:34:11;1.83;;;1.65;;
10309;SDS011;5200;43.236;27.986;2023-07-31T04:36:38;3.78;;;1.67;;
10309;SDS011;5200;43.236;27.986;2023-07-31T04:39:05;2.45;;;1.58;;
10309;SDS011;5200;43.236;27.986;2023-07-31T04:44:11;3.63;;;1.55;;
10309;SDS011;5200;43.236;27.986;2023-07-31T04:49:09;2.38;;;1.30;;
10309;SDS011;5200;43.236;27.986;2023-07-31T04:51:37;1.85;;;1.25;;
10309;SDS011;5200;43.236;27.986;2023-07-31T04:54:04;4.53;;;1.58;;
10309;SDS011;5200;43.236;27.986;2023-07-31T04:56:31;1.88;;;1.42;;
10309;SDS011;5200;43.236;27.986;2023-07-31T04:58:58;2.50;;;1.50;;
10309;SDS011;5200;43.236;27.986;2023-07-31T05:01:25;3.72;;;1.80;;
10309;SDS011;5200;43.236;27.986;2023-07-31T05:03:51;2.50;;;1.50;;
10309;SDS011;5200;43.236;27.986;2023-07-31T05:06:20;2.10;;;1.73;;
10309;SDS011;5200;43.236;27.986;2023-07-31T05:08:46;5.55;;;2.10;;
10309;SDS011;5200;43.236;27.986;2023-07-31T05:11:13;5.88;;;1.55;;
10309;SDS011;5200;43.236;27.986;2023-07-31T05:13:40;2.30;;;1.58;;
10309;SDS011;5200;43.236;27.986;2023-07-31T05:16:07;5.20;;;1.70;;
10309;SDS011;5200;43.236;27.986;2023-07-31T05:18:34;2.03;;;1.40;;
10309;SDS011;5200;43.236;27.986;2023-07-31T05:21:00;3.15;;;1.70;;
10309;SDS011;5200;43.236;27.986;2023-07-31T05:23:29;5.95;;;2.10;;
10309;SDS011;5200;43.236;27.986;2023-07-31T05:26:02;4.78;;;1.80;;
10309;SDS011;5200;43.236;27.986;2023-07-31T05:28:36;2.33;;;2.10;;
10309;SDS011;5200;43.236;27.986;2023-07-31T05:31:03;2.90;;;2.00;;
10309;SDS011;5200;43.236;27.986;2023-07-31T05:33:31;2.30;;;2.10;;
10309;SDS011;5200;43.236;27.986;2023-07-31T05:35:58;5.25;;;2.22;;
10309;SDS011;5200;43.236;27.986;2023-07-31T05:38:25;2.55;;;2.35;;
10309;SDS011;5200;43.236;27.986;2023-07-31T05:40:55;2.30;;;2.20;;
10309;SDS011;5200;43.236;27.986;2023-07-31T05:43:22;2.60;;;2.40;;
10309;SDS011;5200;43.236;27.986;2023-07-31T05:45:49;3.58;;;2.90;;
10309;SDS011;5200;43.236;27.986;2023-07-31T05:48:15;3.70;;;2.42;;
10309;SDS011;5200;43.236;27.986;2023-07-31T05:50:42;2.88;;;2.60;;
10309;SDS011;5200;43.236;27.986;2023-07-31T05:53:09;2.92;;;2.65;;
10309;SDS011;5200;43.236;27.986;2023-07-31T05:55:36;3.08;;;2.70;;
10309;SDS011;5200;43.236;27.986;2023-07-31T05:58:04;2.97;;;2.55;;
10309;SDS011;5200;43.236;27.986;2023-07-31T06:00:31;3.03;;;2.70;;
10309;SDS011;5200;43.236;27.986;2023-07-31T06:02:58;5.30;;;2.50;;
10309;SDS011;5200;43.236;27.986;2023-07-31T06:05:25;3.92;;;2.97;;
10309;SDS011;5200;43.236;27.986;2023-07-31T06:07:53;4.03;;;2.72;;
10309;SDS011;5200;43.236;27.986;2023-07-31T06:10:20;2.70;;;2.50;;
10309;SDS011;5200;43.236;27.986;2023-07-31T06:12:47;2.83;;;2.63;;
10309;SDS011;5200;43.236;27.986;2023-07-31T06:15:15;3.35;;;2.70;;
10309;SDS011;5200;43.236;27.986;2023-07-31T06:17:44;4.43;;;2.58;;
10309;SDS011;5200;43.236;27.986;2023-07-31T06:20:11;3.30;;;2.75;;
10309;SDS011;5200;43.236;27.986;2023-07-31T06:22:38;3.00;;;2.70;;
10309;SDS011;5200;43.236;27.986;2023-07-31T06:25:05;2.60;;;2.40;;
10309;SDS011;5200;43.236;27.986;2023-07-31T06:27:32;2.70;;;2.50;;
10309;SDS011;5200;43.236;27.986;2023-07-31T06:29:59;4.15;;;2.25;;
10309;SDS011;5200;43.236;27.986;2023-07-31T06:32:27;4.20;;;2.53;;
10309;SDS011;5200;43.236;27.986;2023-07-31T06:34:54;2.70;;;2.50;;
10309;SDS011;5200;43.236;27.986;2023-07-31T06:37:21;2.55;;;2.33;;
10309;SDS011;5200;43.236;27.986;2023-07-31T06:39:48;3.75;;;2.53;;
10309;SDS011;5200;43.236;27.986;2023-07-31T06:42:15;3.17;;;2.53;;
10309;SDS011;5200;43.236;27.986;2023-07-31T06:44:41;4.25;;;2.90;;
10309;SDS011;5200;43.236;27.986;2023-07-31T06:47:08;2.65;;;2.45;;
10309;SDS011;5200;43.236;27.986;2023-07-31T06:49:37;2.97;;;2.78;;
10309;SDS011;5200;43.236;27.986;2023-07-31T06:52:04;3.13;;;2.83;;
10309;SDS011;5200;43.236;27.986;2023-07-31T06:54:31;2.83;;;2.60;;
10309;SDS011;5200;43.236;27.986;2023-07-31T06:56:58;5.18;;;3.00;;
10309;SDS011;5200;43.236;27.986;2023-07-31T06:59:24;6.13;;;3.15;;
10309;SDS011;5200;43.236;27.986;2023-07-31T07:01:52;2.92;;;2.72;;
10309;SDS011;5200;43.236;27.986;2023-07-31T07:04:19;3.58;;;2.85;;
10309;SDS011;5200;43.236;27.986;2023-07-31T07:06:47;5.07;;;2.80;;
10309;SDS011;5200;43.236;27.986;2023-07-31T07:09:14;6.38;;;3.10;;
10309;SDS011;5200;43.236;27.986;2023-07-31T07:11:41;4.07;;;3.70;;
10309;SDS011;5200;43.236;27.986;2023-07-31T07:14:08;3.30;;;3.00;;
10309;SDS011;5200;43.236;27.986;2023-07-31T07:16:35;5.20;;;3.20;;
10309;SDS011;5200;43.236;27.986;2023-07-31T07:19:02;3.30;;;3.05;;
10309;SDS011;5200;43.236;27.986;2023-07-31T07:21:29;3.65;;;3.33;;
10309;SDS011;5200;43.236;27.986;2023-07-31T07:23:58;3.50;;;2.85;;
10309;SDS011;5200;43.236;27.986;2023-07-31T07:26:25;3.88;;;2.70;;
10309;SDS011;5200;43.236;27.986;2023-07-31T07:28:52;3.28;;;2.97;;
10309;SDS011;5200;43.236;27.986;2023-07-31T07:31:20;2.67;;;2.50;;
10309;SDS011;5200;43.236;27.986;2023-07-31T07:33:46;3.33;;;2.72;;
10309;SDS011;5200;43.236;27.986;2023-07-31T07:36:13;2.90;;;2.70;;
10309;SDS011;5200;43.236;27.986;2023-07-31T07:38:40;3.00;;;2.80;;
10309;SDS011;5200;43.236;27.986;2023-07-31T07:41:09;3.05;;;2.75;;
10309;SDS011;5200;43.236;27.986;2023-07-31T07:43:36;5.82;;;2.65;;
10309;SDS011;5200;43.236;27.986;2023-07-31T07:46:03;4.97;;;3.13;;
10309;SDS011;5200;43.236;27.986;2023-07-31T07:48:30;4.07;;;3.03;;
10309;SDS011;5200;43.236;27.986;2023-07-31T07:50:56;4.75;;;3.33;;
10309;SDS011;5200;43.236;27.986;2023-07-31T07:53:24;8.93;;;3.03;;
10309;SDS011;5200;43.236;27.986;2023-07-31T07:55:51;3.92;;;2.70;;
10309;SDS011;5200;43.236;27.986;2023-07-31T07:58:19;3.60;;;2.80;;
10309;SDS011;5200;43.236;27.986;2023-07-31T08:00:48;3.03;;;2.65;;
10309;SDS011;5200;43.236;27.986;2023-07-31T08:03:15;3.47;;;3.17;;
10309;SDS011;5200;43.236;27.986;2023-07-31T08:05:43;3.53;;;3.22;;
10309;SDS011;5200;43.236;27.986;2023-07-31T08:08:13;4.95;;;3.70;;
10309;SDS011;5200;43.236;27.986;2023-07-31T08:10:40;6.63;;;4.22;;
10309;SDS011;5200;43.236;27.986;2023-07-31T08:13:07;3.28;;;2.92;;
10309;SDS011;5200;43.236;27.986;2023-07-31T08:15:37;3.50;;;3.20;;
10309;SDS011;5200;43.236;27.986;2023-07-31T08:18:04;10.02;;;2.95;;
10309;SDS011;5200;43.236;27.986;2023-07-31T08:20:31;6.53;;;3.72;;
10309;SDS011;5200;43.236;27.986;2023-07-31T08:22:58;6.25;;;3.60;;
10309;SDS011;5200;43.236;27.986;2023-07-31T08:25:24;4.82;;;3.17;;
10309;SDS011;5200;43.236;27.986;2023-07-31T08:27:52;3.25;;;2.85;;
10309;SDS011;5200;43.236;27.986;2023-07-31T08:30:19;5.28;;;3.38;;
10309;SDS011;5200;43.236;27.986;2023-07-31T08:32:47;6.05;;;3.72;;
10309;SDS011;5200;43.236;27.986;2023-07-31T08:35:14;4.97;;;3.30;;
10309;SDS011;5200;43.236;27.986;2023-07-31T08:37:41;5.50;;;3.30;;
10309;SDS011;5200;43.236;27.986;2023-07-31T08:40:09;9.27;;;3.65;;
10309;SDS011;5200;43.236;27.986;2023-07-31T08:42:42;5.68;;;2.78;;
10309;SDS011;5200;43.236;27.986;2023-07-31T08:45:12;4.38;;;2.70;;
10309;SDS011;5200;43.236;27.986;2023-07-31T08:47:41;4.47;;;3.10;;
10309;SDS011;5200;43.236;27.986;2023-07-31T08:50:12;3.28;;;2.97;;
10309;SDS011;5200;43.236;27.986;2023-07-31T08:52:39;2.95;;;2.70;;
10309;SDS011;5200;43.236;27.986;2023-07-31T08:55:07;4.28;;;3.08;;
10309;SDS011;5200;43.236;27.986;2023-07-31T08:57:35;4.65;;;3.00;;
10309;SDS011;5200;43.236;27.986;2023-07-31T09:00:03;3.22;;;2.92;;
10309;SDS011;5200;43.236;27.986;2023-07-31T09:02:34;4.15;;;2.90;;
10309;SDS011;5200;43.236;27.986;2023-07-31T09:05:05;3.97;;;3.40;;
10309;SDS011;5200;43.236;27.986;2023-07-31T09:07:35;5.05;;;3.33;;
10309;SDS011;5200;43.236;27.986;2023-07-31T09:10:02;3.38;;;3.08;;
10309;SDS011;5200;43.236;27.986;2023-07-31T09:12:29;4.22;;;3.15;;
10309;SDS011;5200;43.236;27.986;2023-07-31T09:14:56;3.63;;;3.33;;
10309;SDS011;5200;43.236;27.986;2023-07-31T09:17:29;3.13;;;2.92;;
10309;SDS011;5200;43.236;27.986;2023-07-31T09:19:57;3.60;;;2.88;;
10309;SDS011;5200;43.236;27.986;2023-07-31T09:22:35;4.88;;;3.40;;
10309;SDS011;5200;43.236;27.986;2023-07-31T09:25:13;3.42;;;3.20;;
10309;SDS011;5200;43.236;27.986;2023-07-31T09:27:48;3.53;;;3.15;;
10309;SDS011;5200;43.236;27.986;2023-07-31T09:30:16;3.00;;;2.80;;
10309;SDS011;5200;43.236;27.986;2023-07-31T09:32:44;2.83;;;2.63;;
10309;SDS011;5200;43.236;27.986;2023-07-31T09:35:13;3.10;;;2.58;;
10309;SDS011;5200;43.236;27.986;2023-07-31T09:37:49;3.88;;;2.85;;
10309;SDS011;5200;43.236;27.986;2023-07-31T09:40:24;4.72;;;2.65;;
10309;SDS011;5200;43.236;27.986;2023-07-31T09:42:52;3.15;;;2.95;;
10309;SDS011;5200;43.236;27.986;2023-07-31T09:45:19;3.70;;;3.20;;
10309;SDS011;5200;43.236;27.986;2023-07-31T09:47:46;3.72;;;3.08;;
10309;SDS011;5200;43.236;27.986;2023-07-31T09:50:14;3.35;;;2.75;;
10309;SDS011;5200;43.236;27.986;2023-07-31T09:52:41;8.52;;;2.63;;
10309;SDS011;5200;43.236;27.986;2023-07-31T09:55:09;5.55;;;2.75;;
10309;SDS011;5200;43.236;27.986;2023-07-31T09:57:36;3.30;;;3.00;;
10309;SDS011;5200;43.236;27.986;2023-07-31T10:00:07;3.00;;;2.80;;
10309;SDS011;5200;43.236;27.986;2023-07-31T10:02:35;3.72;;;2.70;;
10309;SDS011;5200;43.236;27.986;2023-07-31T10:05:03;4.03;;;2.80;;
10309;SDS011;5200;43.236;27.986;2023-07-31T10:07:33;3.80;;;2.90;;
10309;SDS011;5200;43.236;27.986;2023-07-31T10:10:03;4.72;;;2.78;;
10309;SDS011;5200;43.236;27.986;2023-07-31T10:12:33;3.08;;;2.80;;
10309;SDS011;5200;43.236;27.986;2023-07-31T10:15:01;4.55;;;3.20;;
10309;SDS011;5200;43.236;27.986;2023-07-31T10:17:28;2.70;;;2.50;;
10309;SDS011;5200;43.236;27.986;2023-07-31T10:19:56;4.72;;;2.92;;
10309;SDS011;5200;43.236;27.986;2023-07-31T10:22:26;6.28;;;2.70;;
10309;SDS011;5200;43.236;27.986;2023-07-31T10:24:54;6.32;;;2.75;;
10309;SDS011;5200;43.236;27.986;2023-07-31T10:27:23;5.38;;;3.20;;
10309;SDS011;5200;43.236;27.986;2023-07-31T10:29:52;2.78;;;2.55;;
10309;SDS011;5200;43.236;27.986;2023-07-31T10:32:20;6.75;;;3.13;;
10309;SDS011;5200;43.236;27.986;2023-07-31T10:34:49;2.70;;;2.47;;
10309;SDS011;5200;43.236;27.986;2023-07-31T10:37:24;3.30;;;3.05;;
10309;SDS011;5200;43.236;27.986;2023-07-31T10:39:59;4.40;;;2.92;;
10309;SDS011;5200;43.236;27.986;2023-07-31T10:42:31;3.28;;;2.97;;
10309;SDS011;5200;43.236;27.986;2023-07-31T10:45:01;3.47;;;2.92;;
10309;SDS011;5200;43.236;27.986;2023-07-31T10:47:30;2.80;;;2.60;;
10309;SDS011;5200;43.236;27.986;2023-07-31T10:50:19;3.13;;;2.88;;
10309;SDS011;5200;43.236;27.986;2023-07-31T10:52:49;4.80;;;2.70;;
10309;SDS011;5200;43.236;27.986;2023-07-31T10:55:28;3.40;;;3.10;;
10309;SDS011;5200;43.236;27.986;2023-07-31T10:57:56;20.50;;;4.05;;
10309;SDS011;5200;43.236;27.986;2023-07-31T11:00:32;3.08;;;2.70;;
10309;SDS011;5200;43.236;27.986;2023-07-31T11:03:00;2.80;;;2.60;;
10309;SDS011;5200;43.236;27.986;2023-07-31T11:05:40;3.13;;;2.90;;
10309;SDS011;5200;43.236;27.986;2023-07-31T11:08:12;5.78;;;2.78;;
10309;SDS011;5200;43.236;27.986;2023-07-31T11:10:39;2.80;;;2.60;;
10309;SDS011;5200;43.236;27.986;2023-07-31T11:13:06;4.07;;;2.80;;
10309;SDS011;5200;43.236;27.986;2023-07-31T11:15:34;3.88;;;2.25;;
10309;SDS011;5200;43.236;27.986;2023-07-31T11:18:01;2.47;;;2.22;;
10309;SDS011;5200;43.236;27.986;2023-07-31T11:20:30;2.20;;;1.90;;
10309;SDS011;5200;43.236;27.986;2023-07-31T11:22:58;2.25;;;2.10;;
10309;SDS011;5200;43.236;27.986;2023-07-31T11:25:26;2.40;;;2.20;;
10309;SDS011;5200;43.236;27.986;2023-07-31T11:27:56;3.90;;;2.13;;
10309;SDS011;5200;43.236;27.986;2023-07-31T11:30:22;1.90;;;1.80;;
10309;SDS011;5200;43.236;27.986;2023-07-31T11:32:51;1.80;;;1.70;;
10309;SDS011;5200;43.236;27.986;2023-07-31T11:35:18;2.33;;;2.13;;
10309;SDS011;5200;43.236;27.986;2023-07-31T11:37:45;2.30;;;2.17;;
10309;SDS011;5200;43.236;27.986;2023-07-31T11:40:11;2.00;;;1.90;;
10309;SDS011;5200;43.236;27.986;2023-07-31T11:42:38;3.47;;;2.33;;
10309;SDS011;5200;43.236;27.986;2023-07-31T11:45:06;2.20;;;2.10;;
10309;SDS011;5200;43.236;27.986;2023-07-31T11:47:34;2.67;;;2.47;;
10309;SDS011;5200;43.236;27.986;2023-07-31T11:50:04;2.65;;;2.45;;
10309;SDS011;5200;43.236;27.986;2023-07-31T11:52:33;3.22;;;2.45;;
10309;SDS011;5200;43.236;27.986;2023-07-31T11:55:04;2.80;;;2.60;;
10309;SDS011;5200;43.236;27.986;2023-07-31T11:57:32;2.72;;;2.53;;
10309;SDS011;5200;43.236;27.986;2023-07-31T11:59:59;2.30;;;2.10;;
10309;SDS011;5200;43.236;27.986;2023-07-31T12:02:26;2.60;;;2.40;;
10309;SDS011;5200;43.236;27.986;2023-07-31T12:04:53;2.47;;;2.28;;
10309;SDS011;5200;43.236;27.986;2023-07-31T12:07:21;2.95;;;2.65;;
10309;SDS011;5200;43.236;27.986;2023-07-31T12:09:51;5.70;;;2.80;;
10309;SDS011;5200;43.236;27.986;2023-07-31T12:12:19;10.43;;;2.67;;
10309;SDS011;5200;43.236;27.986;2023-07-31T12:14:47;17.67;;;3.40;;
10309;SDS011;5200;43.236;27.986;2023-07-31T12:17:15;2.80;;;2.60;;
10309;SDS011;5200;43.236;27.986;2023-07-31T12:19:43;3.00;;;2.80;;
10309;SDS011;5200;43.236;27.986;2023-07-31T12:22:13;3.40;;;3.10;;
10309;SDS011;5200;43.236;27.986;2023-07-31T12:24:43;2.70;;;2.50;;
10309;SDS011;5200;43.236;27.986;2023-07-31T12:27:11;3.65;;;2.85;;
10309;SDS011;5200;43.236;27.986;2023-07-31T12:29:38;3.00;;;2.80;;
10309;SDS011;5200;43.236;27.986;2023-07-31T12:32:18;3.17;;;2.88;;
10309;SDS011;5200;43.236;27.986;2023-07-31T12:34:49;3.10;;;2.72;;
10309;SDS011;5200;43.236;27.986;2023-07-31T12:37:15;3.28;;;3.08;;
10309;SDS011;5200;43.236;27.986;2023-07-31T12:39:44;3.10;;;2.80;;
10309;SDS011;5200;43.236;27.986;2023-07-31T12:42:11;3.70;;;3.05;;
10309;SDS011;5200;43.236;27.986;2023-07-31T12:44:38;3.50;;;3.20;;
10309;SDS011;5200;43.236;27.986;2023-07-31T12:47:05;3.40;;;3.20;;
10309;SDS011;5200;43.236;27.986;2023-07-31T12:49:32;6.93;;;3.20;;
10309;SDS011;5200;43.236;27.986;2023-07-31T12:51:58;4.10;;;3.17;;
10309;SDS011;5200;43.236;27.986;2023-07-31T12:54:25;6.07;;;3.17;;
10309;SDS011;5200;43.236;27.986;2023-07-31T12:56:54;4.45;;;2.88;;
10309;SDS011;5200;43.236;27.986;2023-07-31T12:59:21;3.53;;;3.20;;
10309;SDS011;5200;43.236;27.986;2023-07-31T13:01:48;3.45;;;3.15;;
10309;SDS011;5200;43.236;27.986;2023-07-31T13:04:14;3.05;;;2.85;;
10309;SDS011;5200;43.236;27.986;2023-07-31T13:06:41;2.60;;;2.40;;
10309;SDS011;5200;43.236;27.986;2023-07-31T13:09:08;2.88;;;2.67;;
10309;SDS011;5200;43.236;27.986;2023-07-31T13:11:36;3.13;;;2.72;;
10309;SDS011;5200;43.236;27.986;2023-07-31T13:14:04;3.90;;;2.67;;
10309;SDS011;5200;43.236;27.986;2023-07-31T13:16:30;2.40;;;2.30;;
10309;SDS011;5200;43.236;27.986;2023-07-31T13:18:57;2.80;;;2.60;;
10309;SDS011;5200;43.236;27.986;2023-07-31T13:21:24;2.33;;;2.22;;
10309;SDS011;5200;43.236;27.986;2023-07-31T13:23:51;2.95;;;2.75;;
10309;SDS011;5200;43.236;27.986;2023-07-31T13:26:18;2.85;;;2.63;;
10309;SDS011;5200;43.236;27.986;2023-07-31T13:28:45;5.75;;;2.70;;
10309;SDS011;5200;43.236;27.986;2023-07-31T13:31:13;2.92;;;2.70;;
10309;SDS011;5200;43.236;27.986;2023-07-31T13:33:40;2.90;;;2.70;;
10309;SDS011;5200;43.236;27.986;2023-07-31T13:36:07;2.80;;;2.60;;
10309;SDS011;5200;43.236;27.986;2023-07-31T13:38:33;2.63;;;2.53;;
10309;SDS011;5200;43.236;27.986;2023-07-31T13:41:00;2.97;;;2.60;;
10309;SDS011;5200;43.236;27.986;2023-07-31T13:43:27;3.80;;;2.28;;
10309;SDS011;5200;43.236;27.986;2023-07-31T13:45:54;2.80;;;2.60;;
10309;SDS011;5200;43.236;27.986;2023-07-31T13:48:22;3.22;;;2.60;;
10309;SDS011;5200;43.236;27.986;2023-07-31T13:50:49;2.63;;;2.42;;
10309;SDS011;5200;43.236;27.986;2023-07-31T13:53:16;4.95;;;2.75;;
10309;SDS011;5200;43.236;27.986;2023-07-31T13:55:43;3.10;;;2.22;;
10309;SDS011;5200;43.236;27.986;2023-07-31T13:58:10;4.15;;;2.72;;
10309;SDS011;5200;43.236;27.986;2023-07-31T14:00:37;2.70;;;2.50;;
10309;SDS011;5200;43.236;27.986;2023-07-31T14:03:04;3.58;;;2.85;;
10309;SDS011;5200;43.236;27.986;2023-07-31T14:05:32;2.80;;;2.60;;
10309;SDS011;5200;43.236;27.986;2023-07-31T14:07:59;2.90;;;2.70;;
10309;SDS011;5200;43.236;27.986;2023-07-31T14:10:26;3.38;;;3.08;;
10309;SDS011;5200;43.236;27.986;2023-07-31T14:12:53;3.40;;;3.08;;
10309;SDS011;5200;43.236;27.986;2023-07-31T14:15:20;3.05;;;2.85;;
10309;SDS011;5200;43.236;27.986;2023-07-31T14:17:47;3.17;;;2.97;;
10309;SDS011;5200;43.236;27.986;2023-07-31T14:20:14;3.28;;;3.05;;
10309;SDS011;5200;43.236;27.986;2023-07-31T14:22:42;2.92;;;2.70;;
10309;SDS011;5200;43.236;27.986;2023-07-31T14:25:09;3.40;;;3.10;;
10309;SDS011;5200;43.236;27.986;2023-07-31T14:27:36;3.55;;;3.35;;
10309;SDS011;5200;43.236;27.986;2023-07-31T14:30:03;3.15;;;2.95;;
10309;SDS011;5200;43.236;27.986;2023-07-31T14:32:31;3.53;;;3.22;;
10309;SDS011;5200;43.236;27.986;2023-07-31T14:34:58;4.18;;;2.88;;
10309;SDS011;5200;43.236;27.986;2023-07-31T14:37:25;4.93;;;3.65;;
10309;SDS011;5200;43.236;27.986;2023-07-31T14:39:54;3.38;;;3.08;;
10309;SDS011;5200;43.236;27.986;2023-07-31T14:42:21;3.80;;;3.10;;
10309;SDS011;5200;43.236;27.986;2023-07-31T14:44:48;5.70;;;2.83;;
10309;SDS011;5200;43.236;27.986;2023-07-31T14:47:15;3.30;;;3.10;;
10309;SDS011;5200;43.236;27.986;2023-07-31T14:49:41;3.58;;;3.00;;
10309;SDS011;5200;43.236;27.986;2023-07-31T14:52:08;3.65;;;2.90;;
10309;SDS011;5200;43.236;27.986;2023-07-31T14:54:35;2.88;;;2.67;;
10309;SDS011;5200;43.236;27.986;2023-07-31T14:57:04;2.78;;;2.58;;